sensor_id;sensor_type;location;lat;lon;timestamp;temperature;humidity
29917;DHT22;16786;49.466;11.068;2024-03-02T00:01:35;7.30;99.90
29917;DHT22;16786;49.466;11.068;2024-03-02T00:04:04;7.30;99.90
29917;DHT22;16786;49.466;11.068;2024-03-02T00:06:33;7.30;99.90
29917;DHT22;16786;49.466;11.068;2024-03-02T00:09:00;7.30;99.90
29917;DHT22;16786;49.466;11.068;2024-03-02T00:11:28;7.30;99.90
29917;DHT22;16786;49.466;11.068;2024-03-02T00:13:55;7.40;99.90
29917;DHT22;16786;49.466;11.068;2024-03-02T00:16:22;7.30;99.90
29917;DHT22;16786;49.466;11.068;2024-03-02T00:18:50;7.40;99.90
29917;DHT22;16786;49.466;11.068;2024-03-02T00:21:17;7.40;99.90
29917;DHT22;16786;49.466;11.068;2024-03-02T00:23:48;7.40;99.90
29917;DHT22;16786;49.466;11.068;2024-03-02T00:26:18;7.40;99.90
29917;DHT22;16786;49.466;11.068;2024-03-02T00:28:45;7.40;99.90
29917;DHT22;16786;49.466;11.068;2024-03-02T00:31:13;7.40;99.90
29917;DHT22;16786;49.466;11.068;2024-03-02T00:33:48;7.40;99.90
29917;DHT22;16786;49.466;11.068;2024-03-02T00:36:16;7.40;99.90
29917;DHT22;16786;49.466;11.068;2024-03-02T00:38:49;7.40;99.90
29917;DHT22;16786;49.466;11.068;2024-03-02T00:41:25;7.40;99.90
29917;DHT22;16786;49.466;11.068;2024-03-02T00:43:59;7.40;99.90
29917;DHT22;16786;49.466;11.068;2024-03-02T00:46:29;7.40;99.90
29917;DHT22;16786;49.466;11.068;2024-03-02T00:48:59;7.40;99.90
29917;DHT22;16786;49.466;11.068;2024-03-02T00:51:29;7.40;99.90
29917;DHT22;16786;49.466;11.068;2024-03-02T00:53:58;7.40;99.90
29917;DHT22;16786;49.466;11.068;2024-03-02T00:56:26;7.40;99.90
29917;DHT22;16786;49.466;11.068;2024-03-02T00:58:53;7.40;99.90
29917;DHT22;16786;49.466;11.068;2024-03-02T01:01:20;7.40;99.90
29917;DHT22;16786;49.466;11.068;2024-03-02T01:03:48;7.30;99.90
29917;DHT22;16786;49.466;11.068;2024-03-02T01:06:16;7.30;99.90
29917;DHT22;16786;49.466;11.068;2024-03-02T01:08:43;7.30;99.90
29917;DHT22;16786;49.466;11.068;2024-03-02T01:11:10;7.30;99.90
29917;DHT22;16786;49.466;11.068;2024-03-02T01:13:38;7.30;99.90
29917;DHT22;16786;49.466;11.068;2024-03-02T01:16:05;7.30;99.90
29917;DHT22;16786;49.466;11.068;2024-03-02T01:18:32;7.30;99.90
29917;DHT22;16786;49.466;11.068;2024-03-02T01:20:59;7.20;99.90
29917;DHT22;16786;49.466;11.068;2024-03-02T01:23:26;7.20;99.90
29917;DHT22;16786;49.466;11.068;2024-03-02T01:25:53;7.20;99.90
29917;DHT22;16786;49.466;11.068;2024-03-02T01:28:20;7.20;99.90
29917;DHT22;16786;49.466;11.068;2024-03-02T01:30:49;7.20;99.90
29917;DHT22;16786;49.466;11.068;2024-03-02T01:33:17;7.10;99.90
29917;DHT22;16786;49.466;11.068;2024-03-02T01:35:45;7.10;99.90
29917;DHT22;16786;49.466;11.068;2024-03-02T01:38:12;7.10;99.90
29917;DHT22;16786;49.466;11.068;2024-03-02T01:40:39;7.10;99.90
29917;DHT22;16786;49.466;11.068;2024-03-02T01:43:07;7.10;99.90
29917;DHT22;16786;49.466;11.068;2024-03-02T01:45:35;7.10;99.90
29917;DHT22;16786;49.466;11.068;2024-03-02T01:48:05;7.10;99.90
29917;DHT22;16786;49.466;11.068;2024-03-02T01:50:34;7.10;99.90
29917;DHT22;16786;49.466;11.068;2024-03-02T01:53:01;7.10;99.90
29917;DHT22;16786;49.466;11.068;2024-03-02T01:55:30;7.10;99.90
29917;DHT22;16786;49.466;11.068;2024-03-02T01:57:58;7.10;99.90
29917;DHT22;16786;49.466;11.068;2024-03-02T02:00:26;7.00;99.90
29917;DHT22;16786;49.466;11.068;2024-03-02T02:02:54;7.00;99.90
29917;DHT22;16786;49.466;11.068;2024-03-02T02:05:21;7.00;99.90
29917;DHT22;16786;49.466;11.068;2024-03-02T02:07:49;7.00;99.90
29917;DHT22;16786;49.466;11.068;2024-03-02T02:10:16;7.00;99.90
29917;DHT22;16786;49.466;11.068;2024-03-02T02:12:43;7.00;99.90
29917;DHT22;16786;49.466;11.068;2024-03-02T02:15:29;7.00;99.90
29917;DHT22;16786;49.466;11.068;2024-03-02T02:17:58;7.00;99.90
29917;DHT22;16786;49.466;11.068;2024-03-02T02:20:25;7.00;99.90
29917;DHT22;16786;49.466;11.068;2024-03-02T02:23:10;6.90;99.90
29917;DHT22;16786;49.466;11.068;2024-03-02T02:25:40;6.90;99.90
29917;DHT22;16786;49.466;11.068;2024-03-02T02:28:07;6.90;99.90
29917;DHT22;16786;49.466;11.068;2024-03-02T02:30:33;6.90;99.90
29917;DHT22;16786;49.466;11.068;2024-03-02T02:33:01;6.90;99.90
29917;DHT22;16786;49.466;11.068;2024-03-02T02:35:28;7.00;99.90
29917;DHT22;16786;49.466;11.068;2024-03-02T02:37:57;7.00;99.90
29917;DHT22;16786;49.466;11.068;2024-03-02T02:40:25;7.00;99.90
29917;DHT22;16786;49.466;11.068;2024-03-02T02:42:52;7.00;99.90
29917;DHT22;16786;49.466;11.068;2024-03-02T02:45:20;7.00;99.90
29917;DHT22;16786;49.466;11.068;2024-03-02T02:47:47;7.00;99.90
29917;DHT22;16786;49.466;11.068;2024-03-02T02:50:14;7.10;99.90
29917;DHT22;16786;49.466;11.068;2024-03-02T02:52:41;7.10;99.90
29917;DHT22;16786;49.466;11.068;2024-03-02T02:55:10;7.10;99.90
29917;DHT22;16786;49.466;11.068;2024-03-02T02:57:39;7.20;99.90
29917;DHT22;16786;49.466;11.068;2024-03-02T03:00:16;7.20;99.90
29917;DHT22;16786;49.466;11.068;2024-03-02T03:02:48;7.20;99.90
29917;DHT22;16786;49.466;11.068;2024-03-02T03:05:17;7.20;99.90
29917;DHT22;16786;49.466;11.068;2024-03-02T03:07:44;7.30;99.90
29917;DHT22;16786;49.466;11.068;2024-03-02T03:10:12;7.30;99.90
29917;DHT22;16786;49.466;11.068;2024-03-02T03:12:41;7.30;99.90
29917;DHT22;16786;49.466;11.068;2024-03-02T03:15:10;7.40;99.90
29917;DHT22;16786;49.466;11.068;2024-03-02T03:17:38;7.40;99.90
29917;DHT22;16786;49.466;11.068;2024-03-02T03:20:05;7.40;99.90
29917;DHT22;16786;49.466;11.068;2024-03-02T03:22:33;7.40;99.90
29917;DHT22;16786;49.466;11.068;2024-03-02T03:25:00;7.40;99.90
29917;DHT22;16786;49.466;11.068;2024-03-02T03:27:27;7.40;99.90
29917;DHT22;16786;49.466;11.068;2024-03-02T03:29:54;7.40;99.90
29917;DHT22;16786;49.466;11.068;2024-03-02T03:32:21;7.40;99.90
29917;DHT22;16786;49.466;11.068;2024-03-02T03:34:48;7.40;99.90
29917;DHT22;16786;49.466;11.068;2024-03-02T03:37:15;7.50;99.90
29917;DHT22;16786;49.466;11.068;2024-03-02T03:39:42;7.50;99.90
29917;DHT22;16786;49.466;11.068;2024-03-02T03:42:09;7.50;99.90
29917;DHT22;16786;49.466;11.068;2024-03-02T03:44:36;7.50;99.90
29917;DHT22;16786;49.466;11.068;2024-03-02T03:47:03;7.50;99.90
29917;DHT22;16786;49.466;11.068;2024-03-02T03:49:30;7.50;99.90
29917;DHT22;16786;49.466;11.068;2024-03-02T03:51:57;7.50;99.90
29917;DHT22;16786;49.466;11.068;2024-03-02T03:54:24;7.50;99.90
29917;DHT22;16786;49.466;11.068;2024-03-02T03:56:51;7.50;99.90
29917;DHT22;16786;49.466;11.068;2024-03-02T03:59:18;7.50;99.90
29917;DHT22;16786;49.466;11.068;2024-03-02T04:01:45;7.40;99.90
29917;DHT22;16786;49.466;11.068;2024-03-02T04:04:12;7.40;99.90
29917;DHT22;16786;49.466;11.068;2024-03-02T04:06:38;7.30;99.90
29917;DHT22;16786;49.466;11.068;2024-03-02T04:09:05;7.30;99.90
29917;DHT22;16786;49.466;11.068;2024-03-02T04:11:32;7.20;99.90
29917;DHT22;16786;49.466;11.068;2024-03-02T04:13:59;7.20;99.90
29917;DHT22;16786;49.466;11.068;2024-03-02T04:16:26;7.20;99.90
29917;DHT22;16786;49.466;11.068;2024-03-02T04:18:53;7.10;99.90
29917;DHT22;16786;49.466;11.068;2024-03-02T04:21:21;7.10;99.90
29917;DHT22;16786;49.466;11.068;2024-03-02T04:23:48;7.10;99.90
29917;DHT22;16786;49.466;11.068;2024-03-02T04:26:15;7.10;99.90
29917;DHT22;16786;49.466;11.068;2024-03-02T04:28:46;7.00;99.90
29917;DHT22;16786;49.466;11.068;2024-03-02T04:31:15;6.90;99.90
29917;DHT22;16786;49.466;11.068;2024-03-02T04:33:42;6.90;99.90
29917;DHT22;16786;49.466;11.068;2024-03-02T04:36:09;6.80;99.90
29917;DHT22;16786;49.466;11.068;2024-03-02T04:38:37;6.80;99.90
29917;DHT22;16786;49.466;11.068;2024-03-02T04:41:05;6.80;99.90
29917;DHT22;16786;49.466;11.068;2024-03-02T04:43:35;6.80;99.90
29917;DHT22;16786;49.466;11.068;2024-03-02T04:46:01;6.80;99.90
29917;DHT22;16786;49.466;11.068;2024-03-02T04:48:29;6.70;99.90
29917;DHT22;16786;49.466;11.068;2024-03-02T04:50:56;6.70;99.90
29917;DHT22;16786;49.466;11.068;2024-03-02T04:53:23;6.70;99.90
29917;DHT22;16786;49.466;11.068;2024-03-02T04:55:50;6.70;99.90
29917;DHT22;16786;49.466;11.068;2024-03-02T04:58:36;6.70;99.90
29917;DHT22;16786;49.466;11.068;2024-03-02T05:01:03;6.70;99.90
29917;DHT22;16786;49.466;11.068;2024-03-02T05:03:30;6.60;99.90
29917;DHT22;16786;49.466;11.068;2024-03-02T05:05:57;6.60;99.90
29917;DHT22;16786;49.466;11.068;2024-03-02T05:08:24;6.50;99.90
29917;DHT22;16786;49.466;11.068;2024-03-02T05:10:51;6.50;99.90
29917;DHT22;16786;49.466;11.068;2024-03-02T05:13:18;6.60;99.90
29917;DHT22;16786;49.466;11.068;2024-03-02T05:15:45;6.50;99.90
29917;DHT22;16786;49.466;11.068;2024-03-02T05:18:12;6.50;99.90
29917;DHT22;16786;49.466;11.068;2024-03-02T05:20:39;6.40;99.90
29917;DHT22;16786;49.466;11.068;2024-03-02T05:23:06;6.40;99.90
29917;DHT22;16786;49.466;11.068;2024-03-02T05:25:33;6.40;99.90
29917;DHT22;16786;49.466;11.068;2024-03-02T05:28:01;6.40;99.90
29917;DHT22;16786;49.466;11.068;2024-03-02T05:30:29;6.40;99.90
29917;DHT22;16786;49.466;11.068;2024-03-02T05:32:56;6.40;99.90
29917;DHT22;16786;49.466;11.068;2024-03-02T05:35:22;6.40;99.90
29917;DHT22;16786;49.466;11.068;2024-03-02T05:37:50;6.30;99.90
29917;DHT22;16786;49.466;11.068;2024-03-02T05:40:17;6.30;99.90
29917;DHT22;16786;49.466;11.068;2024-03-02T05:42:46;6.30;99.90
29917;DHT22;16786;49.466;11.068;2024-03-02T05:45:14;6.30;99.90
29917;DHT22;16786;49.466;11.068;2024-03-02T05:47:43;6.20;99.90
29917;DHT22;16786;49.466;11.068;2024-03-02T05:50:10;6.20;99.90
29917;DHT22;16786;49.466;11.068;2024-03-02T05:52:37;6.20;99.90
29917;DHT22;16786;49.466;11.068;2024-03-02T05:55:04;6.20;99.90
29917;DHT22;16786;49.466;11.068;2024-03-02T05:57:31;6.20;99.90
29917;DHT22;16786;49.466;11.068;2024-03-02T06:00:12;6.20;99.90
29917;DHT22;16786;49.466;11.068;2024-03-02T06:02:40;6.10;99.90
29917;DHT22;16786;49.466;11.068;2024-03-02T06:05:07;6.10;99.90
29917;DHT22;16786;49.466;11.068;2024-03-02T06:07:34;6.10;99.90
29917;DHT22;16786;49.466;11.068;2024-03-02T06:10:01;6.10;99.90
29917;DHT22;16786;49.466;11.068;2024-03-02T06:12:31;6.10;99.90
29917;DHT22;16786;49.466;11.068;2024-03-02T06:14:58;6.10;99.90
29917;DHT22;16786;49.466;11.068;2024-03-02T06:17:25;6.20;99.90
29917;DHT22;16786;49.466;11.068;2024-03-02T06:19:52;6.20;99.90
29917;DHT22;16786;49.466;11.068;2024-03-02T06:22:19;6.20;99.90
29917;DHT22;16786;49.466;11.068;2024-03-02T06:24:46;6.20;99.90
29917;DHT22;16786;49.466;11.068;2024-03-02T06:27:13;6.20;99.90
29917;DHT22;16786;49.466;11.068;2024-03-02T06:29:40;6.20;99.90
29917;DHT22;16786;49.466;11.068;2024-03-02T06:32:07;6.20;99.90
29917;DHT22;16786;49.466;11.068;2024-03-02T06:34:34;6.30;99.90
29917;DHT22;16786;49.466;11.068;2024-03-02T06:37:01;6.30;99.90
29917;DHT22;16786;49.466;11.068;2024-03-02T06:39:28;6.40;99.90
29917;DHT22;16786;49.466;11.068;2024-03-02T06:41:55;6.40;99.90
29917;DHT22;16786;49.466;11.068;2024-03-02T06:44:22;6.50;99.90
29917;DHT22;16786;49.466;11.068;2024-03-02T06:46:49;6.50;99.90
29917;DHT22;16786;49.466;11.068;2024-03-02T06:49:15;6.50;99.90
29917;DHT22;16786;49.466;11.068;2024-03-02T06:51:44;6.60;99.90
29917;DHT22;16786;49.466;11.068;2024-03-02T06:54:11;6.60;99.90
29917;DHT22;16786;49.466;11.068;2024-03-02T06:56:38;6.60;99.90
29917;DHT22;16786;49.466;11.068;2024-03-02T06:59:05;6.70;99.90
29917;DHT22;16786;49.466;11.068;2024-03-02T07:01:32;6.70;99.90
29917;DHT22;16786;49.466;11.068;2024-03-02T07:03:59;6.80;99.90
29917;DHT22;16786;49.466;11.068;2024-03-02T07:06:26;6.90;99.90
29917;DHT22;16786;49.466;11.068;2024-03-02T07:08:53;7.00;99.90
29917;DHT22;16786;49.466;11.068;2024-03-02T07:11:20;7.10;99.90
29917;DHT22;16786;49.466;11.068;2024-03-02T07:13:47;7.20;99.90
29917;DHT22;16786;49.466;11.068;2024-03-02T07:16:14;7.30;99.90
29917;DHT22;16786;49.466;11.068;2024-03-02T07:18:59;7.40;99.90
29917;DHT22;16786;49.466;11.068;2024-03-02T07:21:28;7.60;99.90
29917;DHT22;16786;49.466;11.068;2024-03-02T07:23:55;7.80;99.90
29917;DHT22;16786;49.466;11.068;2024-03-02T07:26:22;8.00;99.90
29917;DHT22;16786;49.466;11.068;2024-03-02T07:28:52;8.10;99.90
29917;DHT22;16786;49.466;11.068;2024-03-02T07:31:19;8.30;99.90
29917;DHT22;16786;49.466;11.068;2024-03-02T07:33:47;8.40;99.90
29917;DHT22;16786;49.466;11.068;2024-03-02T07:36:14;8.60;99.90
29917;DHT22;16786;49.466;11.068;2024-03-02T07:38:42;8.70;99.90
29917;DHT22;16786;49.466;11.068;2024-03-02T07:41:11;8.80;99.90
29917;DHT22;16786;49.466;11.068;2024-03-02T07:43:38;9.00;99.90
29917;DHT22;16786;49.466;11.068;2024-03-02T07:46:05;9.00;99.90
29917;DHT22;16786;49.466;11.068;2024-03-02T07:48:32;9.10;99.90
29917;DHT22;16786;49.466;11.068;2024-03-02T07:51:00;9.20;99.90
29917;DHT22;16786;49.466;11.068;2024-03-02T07:53:28;9.30;99.90
29917;DHT22;16786;49.466;11.068;2024-03-02T07:55:56;9.30;99.90
29917;DHT22;16786;49.466;11.068;2024-03-02T07:58:28;9.40;99.90
29917;DHT22;16786;49.466;11.068;2024-03-02T08:00:56;9.50;99.90
29917;DHT22;16786;49.466;11.068;2024-03-02T08:03:23;9.50;99.90
29917;DHT22;16786;49.466;11.068;2024-03-02T08:05:50;9.60;99.90
29917;DHT22;16786;49.466;11.068;2024-03-02T08:08:17;9.70;99.90
29917;DHT22;16786;49.466;11.068;2024-03-02T08:10:44;9.70;99.90
29917;DHT22;16786;49.466;11.068;2024-03-02T08:13:11;9.80;99.90
29917;DHT22;16786;49.466;11.068;2024-03-02T08:15:38;9.80;99.90
29917;DHT22;16786;49.466;11.068;2024-03-02T08:18:06;9.80;99.90
29917;DHT22;16786;49.466;11.068;2024-03-02T08:20:33;9.70;99.90
29917;DHT22;16786;49.466;11.068;2024-03-02T08:22:59;9.70;99.90
29917;DHT22;16786;49.466;11.068;2024-03-02T08:25:26;9.70;99.90
29917;DHT22;16786;49.466;11.068;2024-03-02T08:27:53;9.80;99.90
29917;DHT22;16786;49.466;11.068;2024-03-02T08:30:21;9.80;99.90
29917;DHT22;16786;49.466;11.068;2024-03-02T08:32:48;9.80;99.90
29917;DHT22;16786;49.466;11.068;2024-03-02T08:35:15;9.90;99.90
29917;DHT22;16786;49.466;11.068;2024-03-02T08:37:42;10.00;99.90
29917;DHT22;16786;49.466;11.068;2024-03-02T08:40:10;10.10;99.90
29917;DHT22;16786;49.466;11.068;2024-03-02T08:42:42;10.30;99.90
29917;DHT22;16786;49.466;11.068;2024-03-02T08:45:09;10.40;99.90
29917;DHT22;16786;49.466;11.068;2024-03-02T08:47:36;10.50;99.90
29917;DHT22;16786;49.466;11.068;2024-03-02T08:50:03;10.50;99.90
29917;DHT22;16786;49.466;11.068;2024-03-02T08:52:31;10.70;99.90
29917;DHT22;16786;49.466;11.068;2024-03-02T08:54:58;10.70;99.90
29917;DHT22;16786;49.466;11.068;2024-03-02T08:57:25;10.90;99.90
29917;DHT22;16786;49.466;11.068;2024-03-02T08:59:52;11.00;99.90
29917;DHT22;16786;49.466;11.068;2024-03-02T09:02:19;11.20;99.90
29917;DHT22;16786;49.466;11.068;2024-03-02T09:04:46;11.30;99.90
29917;DHT22;16786;49.466;11.068;2024-03-02T09:07:13;11.50;99.90
29917;DHT22;16786;49.466;11.068;2024-03-02T09:09:40;11.60;99.90
29917;DHT22;16786;49.466;11.068;2024-03-02T09:12:08;11.50;99.90
29917;DHT22;16786;49.466;11.068;2024-03-02T09:14:35;11.60;99.90
29917;DHT22;16786;49.466;11.068;2024-03-02T09:17:03;11.50;99.90
29917;DHT22;16786;49.466;11.068;2024-03-02T09:19:30;11.40;99.90
29917;DHT22;16786;49.466;11.068;2024-03-02T09:21:57;11.60;99.90
29917;DHT22;16786;49.466;11.068;2024-03-02T09:24:25;11.90;99.90
29917;DHT22;16786;49.466;11.068;2024-03-02T09:26:52;12.10;99.90
29917;DHT22;16786;49.466;11.068;2024-03-02T09:29:19;12.20;99.90
29917;DHT22;16786;49.466;11.068;2024-03-02T09:31:47;12.20;99.90
29917;DHT22;16786;49.466;11.068;2024-03-02T09:34:14;12.20;99.90
29917;DHT22;16786;49.466;11.068;2024-03-02T09:36:42;12.40;99.90
29917;DHT22;16786;49.466;11.068;2024-03-02T09:39:10;12.60;99.90
29917;DHT22;16786;49.466;11.068;2024-03-02T09:41:37;12.70;99.90
29917;DHT22;16786;49.466;11.068;2024-03-02T09:44:05;12.70;99.90
29917;DHT22;16786;49.466;11.068;2024-03-02T09:46:32;12.70;99.90
29917;DHT22;16786;49.466;11.068;2024-03-02T09:49:00;12.90;99.90
29917;DHT22;16786;49.466;11.068;2024-03-02T09:51:27;13.00;99.90
29917;DHT22;16786;49.466;11.068;2024-03-02T09:53:55;13.30;99.90
29917;DHT22;16786;49.466;11.068;2024-03-02T09:56:29;13.30;99.90
29917;DHT22;16786;49.466;11.068;2024-03-02T09:58:56;13.40;99.90
29917;DHT22;16786;49.466;11.068;2024-03-02T10:01:23;13.60;99.90
29917;DHT22;16786;49.466;11.068;2024-03-02T10:03:50;13.90;99.90
29917;DHT22;16786;49.466;11.068;2024-03-02T10:06:25;14.10;99.90
29917;DHT22;16786;49.466;11.068;2024-03-02T10:08:52;14.20;99.90
29917;DHT22;16786;49.466;11.068;2024-03-02T10:11:32;14.20;99.90
29917;DHT22;16786;49.466;11.068;2024-03-02T10:14:10;14.30;99.90
29917;DHT22;16786;49.466;11.068;2024-03-02T10:16:38;14.50;99.90
29917;DHT22;16786;49.466;11.068;2024-03-02T10:19:18;14.60;99.90
29917;DHT22;16786;49.466;11.068;2024-03-02T10:21:50;14.40;99.90
29917;DHT22;16786;49.466;11.068;2024-03-02T10:24:18;14.50;99.90
29917;DHT22;16786;49.466;11.068;2024-03-02T10:26:45;14.80;99.90
29917;DHT22;16786;49.466;11.068;2024-03-02T10:29:12;14.90;99.90
29917;DHT22;16786;49.466;11.068;2024-03-02T10:31:41;15.00;99.90
29917;DHT22;16786;49.466;11.068;2024-03-02T10:34:09;15.00;99.90
29917;DHT22;16786;49.466;11.068;2024-03-02T10:36:38;15.30;99.90
29917;DHT22;16786;49.466;11.068;2024-03-02T10:39:07;15.30;99.90
29917;DHT22;16786;49.466;11.068;2024-03-02T10:41:36;15.50;99.90
29917;DHT22;16786;49.466;11.068;2024-03-02T10:44:05;15.60;99.90
29917;DHT22;16786;49.466;11.068;2024-03-02T10:46:34;15.60;99.90
29917;DHT22;16786;49.466;11.068;2024-03-02T10:49:02;15.70;99.90
29917;DHT22;16786;49.466;11.068;2024-03-02T10:51:34;15.90;99.90
29917;DHT22;16786;49.466;11.068;2024-03-02T10:54:03;15.90;99.90
29917;DHT22;16786;49.466;11.068;2024-03-02T10:56:32;16.10;99.90
29917;DHT22;16786;49.466;11.068;2024-03-02T10:59:26;16.30;99.90
29917;DHT22;16786;49.466;11.068;2024-03-02T11:02:00;16.20;99.90
29917;DHT22;16786;49.466;11.068;2024-03-02T11:04:32;16.40;99.90
29917;DHT22;16786;49.466;11.068;2024-03-02T11:07:03;16.50;99.90
29917;DHT22;16786;49.466;11.068;2024-03-02T11:09:34;16.40;99.90
29917;DHT22;16786;49.466;11.068;2024-03-02T11:12:23;16.20;99.90
29917;DHT22;16786;49.466;11.068;2024-03-02T11:14:51;16.10;99.90
29917;DHT22;16786;49.466;11.068;2024-03-02T11:17:21;16.00;99.90
29917;DHT22;16786;49.466;11.068;2024-03-02T11:19:49;16.00;99.90
29917;DHT22;16786;49.466;11.068;2024-03-02T11:22:17;16.10;99.90
29917;DHT22;16786;49.466;11.068;2024-03-02T11:24:49;15.90;99.90
29917;DHT22;16786;49.466;11.068;2024-03-02T11:33:02;15.70;99.90
29917;DHT22;16786;49.466;11.068;2024-03-02T11:35:41;16.00;99.90
29917;DHT22;16786;49.466;11.068;2024-03-02T11:38:15;16.40;99.90
29917;DHT22;16786;49.466;11.068;2024-03-02T11:40:42;16.30;99.90
29917;DHT22;16786;49.466;11.068;2024-03-02T11:43:10;16.30;99.90
29917;DHT22;16786;49.466;11.068;2024-03-02T11:45:38;16.50;99.90
29917;DHT22;16786;49.466;11.068;2024-03-02T11:48:08;16.10;99.90
29917;DHT22;16786;49.466;11.068;2024-03-02T11:50:47;16.20;99.90
29917;DHT22;16786;49.466;11.068;2024-03-02T11:53:14;16.20;99.90
29917;DHT22;16786;49.466;11.068;2024-03-02T11:55:41;16.30;99.90
29917;DHT22;16786;49.466;11.068;2024-03-02T11:58:14;16.40;99.90
29917;DHT22;16786;49.466;11.068;2024-03-02T12:00:41;16.40;99.90
29917;DHT22;16786;49.466;11.068;2024-03-02T12:03:10;16.70;99.90
29917;DHT22;16786;49.466;11.068;2024-03-02T12:05:39;16.70;99.90
29917;DHT22;16786;49.466;11.068;2024-03-02T12:08:07;16.50;99.90
29917;DHT22;16786;49.466;11.068;2024-03-02T12:10:35;16.60;99.90
29917;DHT22;16786;49.466;11.068;2024-03-02T12:13:04;16.70;99.90
29917;DHT22;16786;49.466;11.068;2024-03-02T12:15:34;16.90;99.90
29917;DHT22;16786;49.466;11.068;2024-03-02T12:18:04;17.10;99.90
29917;DHT22;16786;49.466;11.068;2024-03-02T12:20:33;17.40;99.90
29917;DHT22;16786;49.466;11.068;2024-03-02T12:23:02;17.50;99.90
29917;DHT22;16786;49.466;11.068;2024-03-02T12:25:30;17.30;99.90
29917;DHT22;16786;49.466;11.068;2024-03-02T12:28:00;17.20;99.90
29917;DHT22;16786;49.466;11.068;2024-03-02T12:30:35;17.30;99.90
29917;DHT22;16786;49.466;11.068;2024-03-02T12:33:02;17.50;99.90
29917;DHT22;16786;49.466;11.068;2024-03-02T12:35:30;17.40;99.90
29917;DHT22;16786;49.466;11.068;2024-03-02T12:37:56;17.60;99.90
29917;DHT22;16786;49.466;11.068;2024-03-02T12:40:23;17.30;99.90
29917;DHT22;16786;49.466;11.068;2024-03-02T12:42:50;17.20;99.90
29917;DHT22;16786;49.466;11.068;2024-03-02T12:45:18;17.20;99.90
29917;DHT22;16786;49.466;11.068;2024-03-02T12:47:51;17.10;99.90
29917;DHT22;16786;49.466;11.068;2024-03-02T12:50:19;16.90;99.90
29917;DHT22;16786;49.466;11.068;2024-03-02T12:52:53;17.10;99.90
29917;DHT22;16786;49.466;11.068;2024-03-02T12:55:21;17.20;99.90
29917;DHT22;16786;49.466;11.068;2024-03-02T12:57:52;17.20;99.90
29917;DHT22;16786;49.466;11.068;2024-03-02T13:00:20;17.60;99.90
29917;DHT22;16786;49.466;11.068;2024-03-02T13:02:49;17.30;99.90
29917;DHT22;16786;49.466;11.068;2024-03-02T13:05:18;17.50;99.90
29917;DHT22;16786;49.466;11.068;2024-03-02T13:07:47;18.20;99.90
29917;DHT22;16786;49.466;11.068;2024-03-02T13:10:14;19.20;99.90
29917;DHT22;16786;49.466;11.068;2024-03-02T13:12:41;20.00;99.90
29917;DHT22;16786;49.466;11.068;2024-03-02T13:15:09;21.10;99.90
29917;DHT22;16786;49.466;11.068;2024-03-02T13:17:39;21.90;99.90
29917;DHT22;16786;49.466;11.068;2024-03-02T13:20:06;23.00;99.90
29917;DHT22;16786;49.466;11.068;2024-03-02T13:22:37;23.70;99.90
29917;DHT22;16786;49.466;11.068;2024-03-02T13:25:05;25.50;97.00
29917;DHT22;16786;49.466;11.068;2024-03-02T13:27:33;26.80;91.90
29917;DHT22;16786;49.466;11.068;2024-03-02T13:30:02;27.60;86.90
29917;DHT22;16786;49.466;11.068;2024-03-02T13:32:30;28.10;81.40
29917;DHT22;16786;49.466;11.068;2024-03-02T13:34:57;28.60;77.50
29917;DHT22;16786;49.466;11.068;2024-03-02T13:37:24;28.70;73.80
29917;DHT22;16786;49.466;11.068;2024-03-02T13:39:51;29.80;70.20
29917;DHT22;16786;49.466;11.068;2024-03-02T13:42:18;30.00;67.40
29917;DHT22;16786;49.466;11.068;2024-03-02T13:44:45;30.00;65.40
29917;DHT22;16786;49.466;11.068;2024-03-02T13:47:14;30.10;63.90
29917;DHT22;16786;49.466;11.068;2024-03-02T13:49:41;30.60;62.50
29917;DHT22;16786;49.466;11.068;2024-03-02T13:52:12;31.60;59.70
29917;DHT22;16786;49.466;11.068;2024-03-02T13:54:47;30.40;60.20
29917;DHT22;16786;49.466;11.068;2024-03-02T13:57:15;30.70;59.40
29917;DHT22;16786;49.466;11.068;2024-03-02T13:59:42;30.50;58.50
29917;DHT22;16786;49.466;11.068;2024-03-02T14:02:11;28.70;60.00
29917;DHT22;16786;49.466;11.068;2024-03-02T14:04:38;28.70;61.10
29917;DHT22;16786;49.466;11.068;2024-03-02T14:07:06;29.00;61.00
29917;DHT22;16786;49.466;11.068;2024-03-02T14:09:34;29.50;59.80
29917;DHT22;16786;49.466;11.068;2024-03-02T14:12:02;29.20;59.60
29917;DHT22;16786;49.466;11.068;2024-03-02T14:14:29;28.90;59.10
29917;DHT22;16786;49.466;11.068;2024-03-02T14:16:56;27.80;60.30
29917;DHT22;16786;49.466;11.068;2024-03-02T14:19:27;28.20;60.10
29917;DHT22;16786;49.466;11.068;2024-03-02T14:21:54;28.30;59.10
29917;DHT22;16786;49.466;11.068;2024-03-02T14:24:21;27.70;60.20
29917;DHT22;16786;49.466;11.068;2024-03-02T14:26:51;27.80;59.40
29917;DHT22;16786;49.466;11.068;2024-03-02T14:29:22;27.00;61.20
29917;DHT22;16786;49.466;11.068;2024-03-02T14:31:49;26.60;61.70
29917;DHT22;16786;49.466;11.068;2024-03-02T14:34:16;27.50;60.90
29917;DHT22;16786;49.466;11.068;2024-03-02T14:36:43;27.50;60.40
29917;DHT22;16786;49.466;11.068;2024-03-02T14:39:11;27.40;60.70
29917;DHT22;16786;49.466;11.068;2024-03-02T14:41:38;26.90;60.50
29917;DHT22;16786;49.466;11.068;2024-03-02T14:44:05;26.50;62.10
29917;DHT22;16786;49.466;11.068;2024-03-02T14:46:33;26.80;62.20
29917;DHT22;16786;49.466;11.068;2024-03-02T14:49:00;26.30;62.80
29917;DHT22;16786;49.466;11.068;2024-03-02T14:51:27;25.90;63.90
29917;DHT22;16786;49.466;11.068;2024-03-02T14:53:56;26.40;63.80
29917;DHT22;16786;49.466;11.068;2024-03-02T14:56:23;26.70;62.90
29917;DHT22;16786;49.466;11.068;2024-03-02T14:58:50;26.90;62.50
29917;DHT22;16786;49.466;11.068;2024-03-02T15:01:17;27.30;62.60
29917;DHT22;16786;49.466;11.068;2024-03-02T15:03:45;28.70;61.10
29917;DHT22;16786;49.466;11.068;2024-03-02T15:06:12;29.10;59.90
29917;DHT22;16786;49.466;11.068;2024-03-02T15:08:39;29.40;59.80
29917;DHT22;16786;49.466;11.068;2024-03-02T15:11:09;30.00;58.50
29917;DHT22;16786;49.466;11.068;2024-03-02T15:13:36;29.70;58.70
29917;DHT22;16786;49.466;11.068;2024-03-02T15:16:03;29.60;58.40
29917;DHT22;16786;49.466;11.068;2024-03-02T15:18:30;29.70;58.00
29917;DHT22;16786;49.466;11.068;2024-03-02T15:20:57;29.00;58.60
29917;DHT22;16786;49.466;11.068;2024-03-02T15:23:24;28.90;59.10
29917;DHT22;16786;49.466;11.068;2024-03-02T15:25:51;30.00;57.90
29917;DHT22;16786;49.466;11.068;2024-03-02T15:28:18;29.90;57.10
29917;DHT22;16786;49.466;11.068;2024-03-02T15:30:45;29.40;57.40
29917;DHT22;16786;49.466;11.068;2024-03-02T15:33:12;29.70;57.40
29917;DHT22;16786;49.466;11.068;2024-03-02T15:35:39;29.70;57.30
29917;DHT22;16786;49.466;11.068;2024-03-02T15:38:06;30.50;56.70